sensor_id;sensor_type;location;lat;lon;timestamp;P1;durP1;ratioP1;P2;durP2;ratioP2
3849;SDS011;1940;51.052;13.678;2022-08-03T00:02:21;5.80;;;4.07;;
3849;SDS011;1940;51.052;13.678;2022-08-03T00:04:47;6.27;;;4.33;;
3849;SDS011;1940;51.052;13.678;2022-08-03T00:07:13;6.53;;;3.73;;
3849;SDS011;1940;51.052;13.678;2022-08-03T00:09:38;5.57;;;3.60;;
3849;SDS011;1940;51.052;13.678;2022-08-03T00:12:04;3.83;;;3.30;;
3849;SDS011;1940;51.052;13.678;2022-08-03T00:14:30;6.87;;;3.60;;
3849;SDS011;1940;51.052;13.678;2022-08-03T00:16:56;7.17;;;3.40;;
3849;SDS011;1940;51.052;13.678;2022-08-03T00:19:22;6.13;;;3.30;;
3849;SDS011;1940;51.052;13.678;2022-08-03T00:21:48;5.43;;;3.60;;
3849;SDS011;1940;51.052;13.678;2022-08-03T00:24:13;5.27;;;3.43;;
3849;SDS011;1940;51.052;13.678;2022-08-03T00:26:39;7.63;;;3.20;;
3849;SDS011;1940;51.052;13.678;2022-08-03T00:29:05;4.90;;;3.60;;
3849;SDS011;1940;51.052;13.678;2022-08-03T00:31:30;12.77;;;3.50;;
3849;SDS011;1940;51.052;13.678;2022-08-03T00:33:56;4.27;;;3.50;;
3849;SDS011;1940;51.052;13.678;2022-08-03T00:36:21;3.93;;;3.40;;
3849;SDS011;1940;51.052;13.678;2022-08-03T00:38:47;4.50;;;3.30;;
3849;SDS011;1940;51.052;13.678;2022-08-03T00:41:13;6.40;;;3.80;;
3849;SDS011;1940;51.052;13.678;2022-08-03T00:43:38;4.40;;;3.53;;
3849;SDS011;1940;51.052;13.678;2022-08-03T00:46:04;6.30;;;3.73;;
3849;SDS011;1940;51.052;13.678;2022-08-03T00:48:29;4.90;;;3.70;;
3849;SDS011;1940;51.052;13.678;2022-08-03T00:50:55;3.93;;;3.27;;
3849;SDS011;1940;51.052;13.678;2022-08-03T00:53:21;4.67;;;3.47;;
3849;SDS011;1940;51.052;13.678;2022-08-03T00:55:48;6.80;;;4.40;;
3849;SDS011;1940;51.052;13.678;2022-08-03T00:58:13;6.03;;;4.07;;
3849;SDS011;1940;51.052;13.678;2022-08-03T01:00:39;5.10;;;3.57;;
3849;SDS011;1940;51.052;13.678;2022-08-03T01:03:06;6.63;;;4.23;;
3849;SDS011;1940;51.052;13.678;2022-08-03T01:11:07;6.63;;;3.50;;
3849;SDS011;1940;51.052;13.678;2022-08-03T01:16:22;5.73;;;4.20;;
3849;SDS011;1940;51.052;13.678;2022-08-03T01:30:30;6.47;;;3.60;;
3849;SDS011;1940;51.052;13.678;2022-08-03T01:33:00;4.47;;;3.57;;
3849;SDS011;1940;51.052;13.678;2022-08-03T01:35:52;6.20;;;3.60;;
3849;SDS011;1940;51.052;13.678;2022-08-03T01:38:24;3.80;;;3.30;;
3849;SDS011;1940;51.052;13.678;2022-08-03T01:40:53;4.50;;;3.97;;
3849;SDS011;1940;51.052;13.678;2022-08-03T01:43:23;5.03;;;3.83;;
3849;SDS011;1940;51.052;13.678;2022-08-03T01:45:54;4.60;;;3.70;;
3849;SDS011;1940;51.052;13.678;2022-08-03T01:48:21;5.40;;;4.27;;
3849;SDS011;1940;51.052;13.678;2022-08-03T01:50:47;6.37;;;4.10;;
3849;SDS011;1940;51.052;13.678;2022-08-03T01:53:15;4.33;;;3.77;;
3849;SDS011;1940;51.052;13.678;2022-08-03T01:55:43;5.70;;;4.00;;
3849;SDS011;1940;51.052;13.678;2022-08-03T01:58:12;4.60;;;4.03;;
3849;SDS011;1940;51.052;13.678;2022-08-03T02:00:39;7.00;;;4.03;;
3849;SDS011;1940;51.052;13.678;2022-08-03T02:03:06;6.63;;;4.50;;
3849;SDS011;1940;51.052;13.678;2022-08-03T02:05:33;6.80;;;4.37;;
3849;SDS011;1940;51.052;13.678;2022-08-03T02:08:01;7.73;;;4.23;;
3849;SDS011;1940;51.052;13.678;2022-08-03T02:10:28;6.67;;;5.60;;
3849;SDS011;1940;51.052;13.678;2022-08-03T02:12:56;8.67;;;4.53;;
3849;SDS011;1940;51.052;13.678;2022-08-03T02:15:24;6.70;;;4.07;;
3849;SDS011;1940;51.052;13.678;2022-08-03T02:17:51;6.20;;;4.30;;
3849;SDS011;1940;51.052;13.678;2022-08-03T02:20:18;6.10;;;4.43;;
3849;SDS011;1940;51.052;13.678;2022-08-03T02:22:45;8.33;;;4.23;;
3849;SDS011;1940;51.052;13.678;2022-08-03T02:25:12;9.13;;;4.47;;
3849;SDS011;1940;51.052;13.678;2022-08-03T02:27:42;6.43;;;4.50;;
3849;SDS011;1940;51.052;13.678;2022-08-03T02:30:14;6.03;;;4.70;;
3849;SDS011;1940;51.052;13.678;2022-08-03T02:32:41;5.13;;;4.40;;
3849;SDS011;1940;51.052;13.678;2022-08-03T02:35:12;6.67;;;4.60;;
3849;SDS011;1940;51.052;13.678;2022-08-03T02:37:42;9.03;;;4.40;;
3849;SDS011;1940;51.052;13.678;2022-08-03T02:40:12;5.63;;;4.70;;
3849;SDS011;1940;51.052;13.678;2022-08-03T02:42:40;7.60;;;4.70;;
3849;SDS011;1940;51.052;13.678;2022-08-03T02:45:08;4.80;;;3.77;;
3849;SDS011;1940;51.052;13.678;2022-08-03T02:47:39;4.80;;;3.77;;
3849;SDS011;1940;51.052;13.678;2022-08-03T02:50:08;9.87;;;4.70;;
3849;SDS011;1940;51.052;13.678;2022-08-03T02:52:36;7.73;;;4.87;;
3849;SDS011;1940;51.052;13.678;2022-08-03T02:55:03;5.80;;;4.90;;
3849;SDS011;1940;51.052;13.678;2022-08-03T02:57:31;5.77;;;4.13;;
3849;SDS011;1940;51.052;13.678;2022-08-03T02:59:59;5.23;;;4.20;;
3849;SDS011;1940;51.052;13.678;2022-08-03T03:02:26;7.67;;;4.47;;
3849;SDS011;1940;51.052;13.678;2022-08-03T03:04:53;7.00;;;4.20;;
3849;SDS011;1940;51.052;13.678;2022-08-03T03:07:20;6.73;;;5.07;;
3849;SDS011;1940;51.052;13.678;2022-08-03T03:09:46;6.20;;;5.07;;
3849;SDS011;1940;51.052;13.678;2022-08-03T03:12:13;7.70;;;5.27;;
3849;SDS011;1940;51.052;13.678;2022-08-03T03:14:39;7.83;;;4.70;;
3849;SDS011;1940;51.052;13.678;2022-08-03T03:17:05;8.57;;;5.30;;
3849;SDS011;1940;51.052;13.678;2022-08-03T03:19:32;5.63;;;4.60;;
3849;SDS011;1940;51.052;13.678;2022-08-03T03:21:59;6.57;;;4.73;;
3849;SDS011;1940;51.052;13.678;2022-08-03T03:24:27;7.30;;;5.00;;
3849;SDS011;1940;51.052;13.678;2022-08-03T03:26:54;5.57;;;4.70;;
3849;SDS011;1940;51.052;13.678;2022-08-03T03:29:20;6.97;;;4.73;;
3849;SDS011;1940;51.052;13.678;2022-08-03T03:31:47;6.57;;;4.90;;
3849;SDS011;1940;51.052;13.678;2022-08-03T03:34:13;6.30;;;4.60;;
3849;SDS011;1940;51.052;13.678;2022-08-03T03:40:01;9.67;;;4.90;;
3849;SDS011;1940;51.052;13.678;2022-08-03T03:42:27;9.50;;;5.60;;
3849;SDS011;1940;51.052;13.678;2022-08-03T03:44:55;7.00;;;5.03;;
3849;SDS011;1940;51.052;13.678;2022-08-03T03:50:17;8.60;;;4.90;;
3849;SDS011;1940;51.052;13.678;2022-08-03T03:52:43;6.37;;;4.73;;
3849;SDS011;1940;51.052;13.678;2022-08-03T03:55:09;22.63;;;5.13;;
3849;SDS011;1940;51.052;13.678;2022-08-03T03:57:34;9.83;;;4.60;;
3849;SDS011;1940;51.052;13.678;2022-08-03T04:00:00;8.37;;;4.83;;
3849;SDS011;1940;51.052;13.678;2022-08-03T04:02:25;20.20;;;5.27;;
3849;SDS011;1940;51.052;13.678;2022-08-03T04:04:51;8.53;;;4.40;;
3849;SDS011;1940;51.052;13.678;2022-08-03T04:07:43;5.47;;;4.10;;
3849;SDS011;1940;51.052;13.678;2022-08-03T04:10:34;5.03;;;4.20;;
3849;SDS011;1940;51.052;13.678;2022-08-03T04:13:20;5.03;;;4.07;;
3849;SDS011;1940;51.052;13.678;2022-08-03T04:15:46;6.07;;;4.47;;
3849;SDS011;1940;51.052;13.678;2022-08-03T04:18:13;6.47;;;4.03;;
3849;SDS011;1940;51.052;13.678;2022-08-03T04:20:42;4.20;;;3.60;;
3849;SDS011;1940;51.052;13.678;2022-08-03T04:23:11;4.97;;;4.10;;
3849;SDS011;1940;51.052;13.678;2022-08-03T04:25:38;6.00;;;3.90;;
3849;SDS011;1940;51.052;13.678;2022-08-03T04:28:05;4.80;;;4.17;;
3849;SDS011;1940;51.052;13.678;2022-08-03T04:30:32;7.03;;;3.67;;
3849;SDS011;1940;51.052;13.678;2022-08-03T04:33:01;4.53;;;3.60;;
3849;SDS011;1940;51.052;13.678;2022-08-03T04:35:30;3.87;;;3.50;;
3849;SDS011;1940;51.052;13.678;2022-08-03T04:38:00;6.10;;;3.40;;
3849;SDS011;1940;51.052;13.678;2022-08-03T04:40:29;7.10;;;3.57;;
3849;SDS011;1940;51.052;13.678;2022-08-03T04:42:58;7.33;;;3.40;;
3849;SDS011;1940;51.052;13.678;2022-08-03T04:45:24;3.83;;;3.40;;
3849;SDS011;1940;51.052;13.678;2022-08-03T04:47:52;4.73;;;3.73;;
3849;SDS011;1940;51.052;13.678;2022-08-03T04:50:19;4.50;;;3.63;;
3849;SDS011;1940;51.052;13.678;2022-08-03T04:52:45;6.10;;;3.77;;
3849;SDS011;1940;51.052;13.678;2022-08-03T04:55:11;4.20;;;3.30;;
3849;SDS011;1940;51.052;13.678;2022-08-03T04:57:36;5.40;;;3.40;;
3849;SDS011;1940;51.052;13.678;2022-08-03T05:00:03;3.17;;;2.87;;
3849;SDS011;1940;51.052;13.678;2022-08-03T05:02:29;3.30;;;2.87;;
3849;SDS011;1940;51.052;13.678;2022-08-03T05:04:56;3.73;;;3.30;;
3849;SDS011;1940;51.052;13.678;2022-08-03T05:07:22;6.70;;;4.00;;
3849;SDS011;1940;51.052;13.678;2022-08-03T05:09:47;4.60;;;3.40;;
3849;SDS011;1940;51.052;13.678;2022-08-03T05:12:13;4.10;;;3.33;;
3849;SDS011;1940;51.052;13.678;2022-08-03T05:14:41;5.40;;;3.57;;
3849;SDS011;1940;51.052;13.678;2022-08-03T05:17:07;4.97;;;3.50;;
3849;SDS011;1940;51.052;13.678;2022-08-03T05:19:33;4.60;;;3.10;;
3849;SDS011;1940;51.052;13.678;2022-08-03T05:21:59;8.40;;;3.27;;
3849;SDS011;1940;51.052;13.678;2022-08-03T05:24:24;3.63;;;3.00;;
3849;SDS011;1940;51.052;13.678;2022-08-03T05:26:50;3.43;;;3.00;;
3849;SDS011;1940;51.052;13.678;2022-08-03T05:29:15;5.13;;;3.83;;
3849;SDS011;1940;51.052;13.678;2022-08-03T05:31:41;3.80;;;3.40;;
3849;SDS011;1940;51.052;13.678;2022-08-03T05:34:07;5.87;;;3.30;;
3849;SDS011;1940;51.052;13.678;2022-08-03T05:36:32;4.23;;;3.30;;
3849;SDS011;1940;51.052;13.678;2022-08-03T05:38:58;3.37;;;3.07;;
3849;SDS011;1940;51.052;13.678;2022-08-03T05:41:24;3.70;;;3.37;;
3849;SDS011;1940;51.052;13.678;2022-08-03T05:43:53;3.10;;;2.80;;
3849;SDS011;1940;51.052;13.678;2022-08-03T05:46:19;4.00;;;3.13;;
3849;SDS011;1940;51.052;13.678;2022-08-03T05:48:47;7.10;;;3.33;;
3849;SDS011;1940;51.052;13.678;2022-08-03T05:51:13;4.13;;;3.20;;
3849;SDS011;1940;51.052;13.678;2022-08-03T05:53:39;3.53;;;2.60;;
3849;SDS011;1940;51.052;13.678;2022-08-03T05:56:05;3.47;;;3.03;;
3849;SDS011;1940;51.052;13.678;2022-08-03T05:58:31;3.30;;;3.00;;
3849;SDS011;1940;51.052;13.678;2022-08-03T06:00:57;5.47;;;3.20;;
3849;SDS011;1940;51.052;13.678;2022-08-03T06:03:22;3.53;;;3.00;;
3849;SDS011;1940;51.052;13.678;2022-08-03T06:05:48;3.30;;;3.00;;
3849;SDS011;1940;51.052;13.678;2022-08-03T06:08:14;3.50;;;3.20;;
3849;SDS011;1940;51.052;13.678;2022-08-03T06:10:39;3.93;;;2.87;;
3849;SDS011;1940;51.052;13.678;2022-08-03T06:13:05;2.83;;;2.63;;
3849;SDS011;1940;51.052;13.678;2022-08-03T06:15:30;5.67;;;2.67;;
3849;SDS011;1940;51.052;13.678;2022-08-03T06:17:57;3.10;;;2.90;;
3849;SDS011;1940;51.052;13.678;2022-08-03T06:20:23;3.10;;;2.67;;
3849;SDS011;1940;51.052;13.678;2022-08-03T06:22:49;4.13;;;2.70;;
3849;SDS011;1940;51.052;13.678;2022-08-03T06:25:15;2.60;;;2.40;;
3849;SDS011;1940;51.052;13.678;2022-08-03T06:27:41;2.80;;;2.60;;
3849;SDS011;1940;51.052;13.678;2022-08-03T06:30:08;3.73;;;2.83;;
3849;SDS011;1940;51.052;13.678;2022-08-03T06:32:35;5.63;;;2.73;;
3849;SDS011;1940;51.052;13.678;2022-08-03T06:35:02;3.10;;;2.83;;
3849;SDS011;1940;51.052;13.678;2022-08-03T06:37:28;5.60;;;2.70;;
3849;SDS011;1940;51.052;13.678;2022-08-03T06:39:54;9.13;;;3.13;;
3849;SDS011;1940;51.052;13.678;2022-08-03T06:42:20;6.40;;;3.47;;
3849;SDS011;1940;51.052;13.678;2022-08-03T06:44:46;5.30;;;3.10;;
3849;SDS011;1940;51.052;13.678;2022-08-03T06:47:11;5.40;;;3.23;;
3849;SDS011;1940;51.052;13.678;2022-08-03T06:49:37;7.10;;;2.73;;
3849;SDS011;1940;51.052;13.678;2022-08-03T06:52:04;8.13;;;3.63;;
3849;SDS011;1940;51.052;13.678;2022-08-03T06:54:30;5.90;;;2.83;;
3849;SDS011;1940;51.052;13.678;2022-08-03T06:56:56;8.50;;;2.97;;
3849;SDS011;1940;51.052;13.678;2022-08-03T06:59:21;6.73;;;3.13;;
3849;SDS011;1940;51.052;13.678;2022-08-03T07:01:47;6.93;;;3.23;;
3849;SDS011;1940;51.052;13.678;2022-08-03T07:04:12;7.70;;;2.97;;
3849;SDS011;1940;51.052;13.678;2022-08-03T07:06:38;11.27;;;2.90;;
3849;SDS011;1940;51.052;13.678;2022-08-03T07:09:03;3.27;;;2.93;;
3849;SDS011;1940;51.052;13.678;2022-08-03T07:11:29;4.90;;;2.67;;
3849;SDS011;1940;51.052;13.678;2022-08-03T07:13:55;4.40;;;3.10;;
3849;SDS011;1940;51.052;13.678;2022-08-03T07:16:21;5.10;;;2.43;;
3849;SDS011;1940;51.052;13.678;2022-08-03T07:18:47;3.27;;;2.60;;
3849;SDS011;1940;51.052;13.678;2022-08-03T07:21:12;3.20;;;2.53;;
3849;SDS011;1940;51.052;13.678;2022-08-03T07:23:40;4.47;;;2.97;;
3849;SDS011;1940;51.052;13.678;2022-08-03T07:26:05;10.23;;;3.00;;
3849;SDS011;1940;51.052;13.678;2022-08-03T07:28:31;2.60;;;2.40;;
3849;SDS011;1940;51.052;13.678;2022-08-03T07:30:56;4.23;;;2.63;;
3849;SDS011;1940;51.052;13.678;2022-08-03T07:33:23;7.50;;;3.00;;
3849;SDS011;1940;51.052;13.678;2022-08-03T07:35:49;8.07;;;2.83;;
3849;SDS011;1940;51.052;13.678;2022-08-03T07:38:15;4.63;;;2.50;;
3849;SDS011;1940;51.052;13.678;2022-08-03T07:40:40;3.80;;;2.50;;
3849;SDS011;1940;51.052;13.678;2022-08-03T07:43:06;7.07;;;2.50;;
3849;SDS011;1940;51.052;13.678;2022-08-03T07:45:31;3.80;;;2.80;;
3849;SDS011;1940;51.052;13.678;2022-08-03T07:47:57;3.50;;;2.50;;
3849;SDS011;1940;51.052;13.678;2022-08-03T07:50:23;3.30;;;3.00;;
3849;SDS011;1940;51.052;13.678;2022-08-03T07:52:49;3.90;;;2.67;;
3849;SDS011;1940;51.052;13.678;2022-08-03T07:55:21;2.53;;;2.33;;
3849;SDS011;1940;51.052;13.678;2022-08-03T08:00:42;6.70;;;2.60;;
3849;SDS011;1940;51.052;13.678;2022-08-03T08:03:09;2.80;;;2.60;;
3849;SDS011;1940;51.052;13.678;2022-08-03T08:05:35;3.37;;;2.50;;
3849;SDS011;1940;51.052;13.678;2022-08-03T08:08:01;2.50;;;2.30;;
3849;SDS011;1940;51.052;13.678;2022-08-03T08:10:27;2.80;;;2.60;;
3849;SDS011;1940;51.052;13.678;2022-08-03T08:12:54;2.47;;;2.27;;
3849;SDS011;1940;51.052;13.678;2022-08-03T08:15:20;3.13;;;2.47;;
3849;SDS011;1940;51.052;13.678;2022-08-03T08:17:46;3.40;;;2.87;;
3849;SDS011;1940;51.052;13.678;2022-08-03T08:20:18;2.40;;;2.20;;
3849;SDS011;1940;51.052;13.678;2022-08-03T08:22:48;2.83;;;2.53;;
3849;SDS011;1940;51.052;13.678;2022-08-03T08:25:14;3.60;;;2.33;;
3849;SDS011;1940;51.052;13.678;2022-08-03T08:27:43;5.30;;;2.50;;
3849;SDS011;1940;51.052;13.678;2022-08-03T08:30:10;2.53;;;2.10;;
3849;SDS011;1940;51.052;13.678;2022-08-03T08:32:36;2.67;;;2.40;;
3849;SDS011;1940;51.052;13.678;2022-08-03T08:35:03;3.20;;;2.30;;
3849;SDS011;1940;51.052;13.678;2022-08-03T08:37:29;2.33;;;2.20;;
3849;SDS011;1940;51.052;13.678;2022-08-03T08:39:55;6.97;;;3.10;;
3849;SDS011;1940;51.052;13.678;2022-08-03T08:42:21;2.20;;;2.10;;
3849;SDS011;1940;51.052;13.678;2022-08-03T08:44:47;2.80;;;2.13;;
3849;SDS011;1940;51.052;13.678;2022-08-03T08:47:13;3.90;;;2.70;;
3849;SDS011;1940;51.052;13.678;2022-08-03T08:49:39;3.13;;;2.10;;
3849;SDS011;1940;51.052;13.678;2022-08-03T08:52:09;2.03;;;1.93;;
3849;SDS011;1940;51.052;13.678;2022-08-03T08:54:37;2.10;;;1.80;;
3849;SDS011;1940;51.052;13.678;2022-08-03T08:57:05;2.20;;;1.90;;
3849;SDS011;1940;51.052;13.678;2022-08-03T08:59:33;7.23;;;1.70;;
3849;SDS011;1940;51.052;13.678;2022-08-03T09:01:59;5.13;;;1.70;;
3849;SDS011;1940;51.052;13.678;2022-08-03T09:04:25;10.73;;;1.70;;
3849;SDS011;1940;51.052;13.678;2022-08-03T09:06:52;1.67;;;1.57;;
3849;SDS011;1940;51.052;13.678;2022-08-03T09:09:18;2.10;;;1.40;;
3849;SDS011;1940;51.052;13.678;2022-08-03T09:11:43;1.53;;;1.43;;
3849;SDS011;1940;51.052;13.678;2022-08-03T09:14:10;4.30;;;1.60;;
3849;SDS011;1940;51.052;13.678;2022-08-03T09:16:35;1.40;;;1.30;;
3849;SDS011;1940;51.052;13.678;2022-08-03T09:19:11;2.70;;;1.80;;
3849;SDS011;1940;51.052;13.678;2022-08-03T09:21:38;1.53;;;1.40;;
3849;SDS011;1940;51.052;13.678;2022-08-03T09:24:04;1.60;;;1.50;;
3849;SDS011;1940;51.052;13.678;2022-08-03T09:26:31;2.03;;;1.40;;
3849;SDS011;1940;51.052;13.678;2022-08-03T09:31:41;4.20;;;2.10;;
3849;SDS011;1940;51.052;13.678;2022-08-03T09:34:15;1.47;;;1.47;;
3849;SDS011;1940;51.052;13.678;2022-08-03T09:36:43;1.70;;;1.60;;
3849;SDS011;1940;51.052;13.678;2022-08-03T09:39:11;1.87;;;1.77;;
3849;SDS011;1940;51.052;13.678;2022-08-03T09:41:39;3.57;;;1.70;;
3849;SDS011;1940;51.052;13.678;2022-08-03T09:44:06;1.93;;;1.70;;
3849;SDS011;1940;51.052;13.678;2022-08-03T09:49:14;2.20;;;1.80;;
3849;SDS011;1940;51.052;13.678;2022-08-03T09:51:39;1.70;;;1.60;;
3849;SDS011;1940;51.052;13.678;2022-08-03T09:54:05;4.20;;;1.70;;
3849;SDS011;1940;51.052;13.678;2022-08-03T09:56:38;2.00;;;1.90;;
3849;SDS011;1940;51.052;13.678;2022-08-03T09:59:04;1.70;;;1.60;;
3849;SDS011;1940;51.052;13.678;2022-08-03T10:01:33;1.70;;;1.60;;
3849;SDS011;1940;51.052;13.678;2022-08-03T10:03:59;2.20;;;1.70;;
3849;SDS011;1940;51.052;13.678;2022-08-03T10:06:25;1.80;;;1.70;;
3849;SDS011;1940;51.052;13.678;2022-08-03T10:09:07;3.23;;;1.80;;
3849;SDS011;1940;51.052;13.678;2022-08-03T10:11:40;2.53;;;2.00;;
3849;SDS011;1940;51.052;13.678;2022-08-03T10:14:08;2.97;;;1.80;;
3849;SDS011;1940;51.052;13.678;2022-08-03T10:16:42;3.00;;;1.60;;
3849;SDS011;1940;51.052;13.678;2022-08-03T10:19:09;1.83;;;1.77;;
3849;SDS011;1940;51.052;13.678;2022-08-03T10:21:35;1.90;;;1.80;;
3849;SDS011;1940;51.052;13.678;2022-08-03T10:24:06;4.93;;;1.77;;
3849;SDS011;1940;51.052;13.678;2022-08-03T10:26:36;1.77;;;1.67;;
3849;SDS011;1940;51.052;13.678;2022-08-03T10:29:04;4.20;;;2.37;;
3849;SDS011;1940;51.052;13.678;2022-08-03T10:31:39;2.60;;;2.10;;
3849;SDS011;1940;51.052;13.678;2022-08-03T10:34:24;2.33;;;2.13;;
3849;SDS011;1940;51.052;13.678;2022-08-03T10:36:51;1.70;;;1.60;;
3849;SDS011;1940;51.052;13.678;2022-08-03T10:39:22;1.97;;;1.80;;
3849;SDS011;1940;51.052;13.678;2022-08-03T10:41:51;8.30;;;2.00;;
3849;SDS011;1940;51.052;13.678;2022-08-03T10:44:19;2.00;;;1.90;;
3849;SDS011;1940;51.052;13.678;2022-08-03T10:46:49;2.40;;;2.20;;
3849;SDS011;1940;51.052;13.678;2022-08-03T10:49:18;1.73;;;1.63;;
3849;SDS011;1940;51.052;13.678;2022-08-03T10:51:45;1.80;;;1.70;;
3849;SDS011;1940;51.052;13.678;2022-08-03T11:00:15;4.57;;;2.07;;
3849;SDS011;1940;51.052;13.678;2022-08-03T11:05:37;3.20;;;2.07;;
3849;SDS011;1940;51.052;13.678;2022-08-03T11:08:16;1.87;;;1.77;;
3849;SDS011;1940;51.052;13.678;2022-08-03T11:10:44;2.70;;;2.00;;
3849;SDS011;1940;51.052;13.678;2022-08-03T11:13:11;1.70;;;1.60;;
3849;SDS011;1940;51.052;13.678;2022-08-03T11:15:41;1.80;;;1.70;;
3849;SDS011;1940;51.052;13.678;2022-08-03T11:18:12;1.70;;;1.60;;
3849;SDS011;1940;51.052;13.678;2022-08-03T11:20:43;1.70;;;1.60;;
3849;SDS011;1940;51.052;13.678;2022-08-03T11:23:19;1.63;;;1.63;;
3849;SDS011;1940;51.052;13.678;2022-08-03T11:26:11;1.90;;;1.80;;
3849;SDS011;1940;51.052;13.678;2022-08-03T11:28:45;2.10;;;2.00;;
3849;SDS011;1940;51.052;13.678;2022-08-03T11:34:05;2.70;;;2.13;;
3849;SDS011;1940;51.052;13.678;2022-08-03T11:39:47;3.27;;;2.27;;
3849;SDS011;1940;51.052;13.678;2022-08-03T11:44:52;2.70;;;2.50;;
3849;SDS011;1940;51.052;13.678;2022-08-03T11:47:21;5.40;;;2.20;;
3849;SDS011;1940;51.052;13.678;2022-08-03T11:49:53;2.40;;;2.20;;
3849;SDS011;1940;51.052;13.678;2022-08-03T11:52:21;5.57;;;2.43;;
3849;SDS011;1940;51.052;13.678;2022-08-03T11:54:49;3.37;;;2.20;;
3849;SDS011;1940;51.052;13.678;2022-08-03T11:57:28;2.77;;;2.57;;
3849;SDS011;1940;51.052;13.678;2022-08-03T11:59:55;3.30;;;2.27;;
3849;SDS011;1940;51.052;13.678;2022-08-03T12:02:21;2.97;;;2.67;;
3849;SDS011;1940;51.052;13.678;2022-08-03T12:04:53;2.90;;;2.70;;
3849;SDS011;1940;51.052;13.678;2022-08-03T12:07:25;2.90;;;2.40;;
3849;SDS011;1940;51.052;13.678;2022-08-03T12:10:08;4.03;;;2.40;;
3849;SDS011;1940;51.052;13.678;2022-08-03T12:12:35;2.80;;;2.20;;
3849;SDS011;1940;51.052;13.678;2022-08-03T12:15:02;2.60;;;2.40;;
3849;SDS011;1940;51.052;13.678;2022-08-03T12:17:33;2.70;;;2.50;;
3849;SDS011;1940;51.052;13.678;2022-08-03T12:19:59;2.67;;;2.47;;
3849;SDS011;1940;51.052;13.678;2022-08-03T12:22:32;2.70;;;2.50;;
3849;SDS011;1940;51.052;13.678;2022-08-03T12:25:00;2.97;;;2.77;;
3849;SDS011;1940;51.052;13.678;2022-08-03T12:27:26;2.50;;;2.30;;
3849;SDS011;1940;51.052;13.678;2022-08-03T12:29:54;2.23;;;2.13;;
3849;SDS011;1940;51.052;13.678;2022-08-03T12:32:21;2.60;;;2.40;;
3849;SDS011;1940;51.052;13.678;2022-08-03T12:34:48;4.87;;;2.40;;
3849;SDS011;1940;51.052;13.678;2022-08-03T12:37:23;9.60;;;2.70;;
3849;SDS011;1940;51.052;13.678;2022-08-03T12:39:49;5.23;;;2.47;;
3849;SDS011;1940;51.052;13.678;2022-08-03T12:42:16;5.70;;;2.63;;
3849;SDS011;1940;51.052;13.678;2022-08-03T12:44:42;5.70;;;2.30;;
3849;SDS011;1940;51.052;13.678;2022-08-03T12:47:07;2.93;;;2.67;;
3849;SDS011;1940;51.052;13.678;2022-08-03T12:49:47;2.80;;;2.50;;
3849;SDS011;1940;51.052;13.678;2022-08-03T12:52:14;3.10;;;2.80;;
3849;SDS011;1940;51.052;13.678;2022-08-03T12:54:40;3.00;;;2.57;;
3849;SDS011;1940;51.052;13.678;2022-08-03T12:59:43;2.60;;;2.40;;
3849;SDS011;1940;51.052;13.678;2022-08-03T13:02:15;2.80;;;2.20;;
3849;SDS011;1940;51.052;13.678;2022-08-03T13:04:45;2.40;;;2.20;;
3849;SDS011;1940;51.052;13.678;2022-08-03T13:07:11;2.87;;;2.67;;
3849;SDS011;1940;51.052;13.678;2022-08-03T13:09:48;2.63;;;2.40;;
3849;SDS011;1940;51.052;13.678;2022-08-03T13:12:15;2.60;;;2.40;;
3849;SDS011;1940;51.052;13.678;2022-08-03T13:14:42;2.63;;;2.43;;
3849;SDS011;1940;51.052;13.678;2022-08-03T13:17:12;5.97;;;2.43;;
3849;SDS011;1940;51.052;13.678;2022-08-03T13:19:40;2.23;;;2.13;;
3849;SDS011;1940;51.052;13.678;2022-08-03T13:22:13;6.73;;;2.40;;
3849;SDS011;1940;51.052;13.678;2022-08-03T13:24:40;2.83;;;2.43;;
3849;SDS011;1940;51.052;13.678;2022-08-03T13:27:07;3.50;;;2.40;;
3849;SDS011;1940;51.052;13.678;2022-08-03T13:29:33;2.50;;;2.30;;
3849;SDS011;1940;51.052;13.678;2022-08-03T13:31:59;2.10;;;2.00;;
3849;SDS011;1940;51.052;13.678;2022-08-03T13:34:26;2.67;;;2.47;;
3849;SDS011;1940;51.052;13.678;2022-08-03T13:36:51;2.73;;;2.13;;
3849;SDS011;1940;51.052;13.678;2022-08-03T13:39:17;3.00;;;2.80;;
3849;SDS011;1940;51.052;13.678;2022-08-03T13:41:44;2.50;;;2.30;;
3849;SDS011;1940;51.052;13.678;2022-08-03T13:44:09;3.60;;;3.23;;
3849;SDS011;1940;51.052;13.678;2022-08-03T13:46:35;2.50;;;2.30;;
3849;SDS011;1940;51.052;13.678;2022-08-03T13:49:01;2.83;;;2.60;;
3849;SDS011;1940;51.052;13.678;2022-08-03T13:51:27;2.33;;;2.17;;
3849;SDS011;1940;51.052;13.678;2022-08-03T13:53:52;2.20;;;2.03;;
3849;SDS011;1940;51.052;13.678;2022-08-03T13:56:18;2.47;;;2.27;;
3849;SDS011;1940;51.052;13.678;2022-08-03T13:58:43;3.33;;;2.40;;
3849;SDS011;1940;51.052;13.678;2022-08-03T14:01:09;2.93;;;2.70;;
3849;SDS011;1940;51.052;13.678;2022-08-03T14:03:35;2.63;;;2.27;;
3849;SDS011;1940;51.052;13.678;2022-08-03T14:06:01;4.33;;;2.30;;
3849;SDS011;1940;51.052;13.678;2022-08-03T14:08:26;2.67;;;2.47;;
3849;SDS011;1940;51.052;13.678;2022-08-03T14:10:52;2.97;;;2.27;;
3849;SDS011;1940;51.052;13.678;2022-08-03T14:13:17;2.30;;;2.10;;
3849;SDS011;1940;51.052;13.678;2022-08-03T14:15:43;2.43;;;2.23;;
3849;SDS011;1940;51.052;13.678;2022-08-03T14:18:10;2.60;;;2.40;;
3849;SDS011;1940;51.052;13.678;2022-08-03T14:20:36;2.57;;;2.37;;
3849;SDS011;1940;51.052;13.678;2022-08-03T14:23:01;3.70;;;2.47;;
3849;SDS011;1940;51.052;13.678;2022-08-03T14:25:27;2.53;;;2.33;;
3849;SDS011;1940;51.052;13.678;2022-08-03T14:27:54;4.20;;;2.37;;
3849;SDS011;1940;51.052;13.678;2022-08-03T14:30:20;2.10;;;2.00;;
3849;SDS011;1940;51.052;13.678;2022-08-03T14:32:46;2.23;;;2.00;;
3849;SDS011;1940;51.052;13.678;2022-08-03T14:35:11;3.00;;;2.57;;
3849;SDS011;1940;51.052;13.678;2022-08-03T14:37:37;2.57;;;2.37;;
3849;SDS011;1940;51.052;13.678;2022-08-03T14:40:03;5.60;;;2.13;;
3849;SDS011;1940;51.052;13.678;2022-08-03T14:42:29;2.53;;;2.33;;
3849;SDS011;1940;51.052;13.678;2022-08-03T14:44:55;2.40;;;2.20;;
3849;SDS011;1940;51.052;13.678;2022-08-03T14:47:20;2.27;;;2.10;;
3849;SDS011;1940;51.052;13.678;2022-08-03T14:49:46;2.30;;;2.10;;
3849;SDS011;1940;51.052;13.678;2022-08-03T14:52:12;3.67;;;2.03;;
3849;SDS011;1940;51.052;13.678;2022-08-03T14:54:37;4.30;;;2.27;;
3849;SDS011;1940;51.052;13.678;2022-08-03T14:57:03;5.43;;;2.30;;
3849;SDS011;1940;51.052;13.678;2022-08-03T14:59:29;2.50;;;2.30;;
3849;SDS011;1940;51.052;13.678;2022-08-03T15:01:54;2.20;;;2.10;;
3849;SDS011;1940;51.052;13.678;2022-08-03T15:04:20;2.40;;;2.20;;
3849;SDS011;1940;51.052;13.678;2022-08-03T15:06:46;3.10;;;2.10;;
3849;SDS011;1940;51.052;13.678;2022-08-03T15:09:11;2.43;;;2.23;;
3849;SDS011;1940;51.052;13.678;2022-08-03T15:11:37;10.00;;;2.87;;
3849;SDS011;1940;51.052;13.678;2022-08-03T15:14:03;2.53;;;2.30;;
3849;SDS011;1940;51.052;13.678;2022-08-03T15:16:29;2.87;;;2.33;;
3849;SDS011;1940;51.052;13.678;2022-08-03T15:18:55;3.40;;;2.23;;
3849;SDS011;1940;51.052;13.678;2022-08-03T15:21:21;2.23;;;2.13;;
3849;SDS011;1940;51.052;13.678;2022-08-03T15:23:47;3.10;;;2.20;;
3849;SDS011;1940;51.052;13.678;2022-08-03T15:26:12;2.30;;;2.00;;
3849;SDS011;1940;51.052;13.678;2022-08-03T15:28:38;3.50;;;2.60;;
3849;SDS011;1940;51.052;13.678;2022-08-03T15:31:04;2.03;;;1.93;;
3849;SDS011;1940;51.052;13.678;2022-08-03T15:33:30;2.00;;;1.90;;
3849;SDS011;1940;51.052;13.678;2022-08-03T15:35:56;2.60;;;2.40;;
3849;SDS011;1940;51.052;13.678;2022-08-03T15:38:23;2.40;;;2.20;;
3849;SDS011;1940;51.052;13.678;2022-08-03T15:40:49;2.57;;;2.37;;
3849;SDS011;1940;51.052;13.678;2022-08-03T15:43:14;3.07;;;2.53;;
3849;SDS011;1940;51.052;13.678;2022-08-03T15:45:40;4.93;;;2.37;;
3849;SDS011;1940;51.052;13.678;2022-08-03T15:48:08;2.90;;;2.50;;
3849;SDS011;1940;51.052;13.678;2022-08-03T15:50:34;2.10;;;2.00;;
3849;SDS011;1940;51.052;13.678;2022-08-03T15:53:03;2.30;;;2.10;;
3849;SDS011;1940;51.052;13.678;2022-08-03T15:55:29;4.47;;;2.40;;
3849;SDS011;1940;51.052;13.678;2022-08-03T15:57:56;6.40;;;2.10;;